createdAt,value
2023-02-07T00:02:31.282Z,4.38
2023-02-07T00:06:35.314Z,5.03
2023-02-07T00:10:37.109Z,4.70
2023-02-07T00:14:38.932Z,4.68
2023-02-07T00:18:41.275Z,3.80
2023-02-07T00:22:44.153Z,5.38
2023-02-07T00:26:47.368Z,4.40
2023-02-07T00:30:49.508Z,4.53
2023-02-07T00:34:51.221Z,4.28
2023-02-07T00:38:57.986Z,5.70
2023-02-07T00:42:59.781Z,5.35
2023-02-07T00:47:01.532Z,5.25
2023-02-07T00:51:06.211Z,4.97
2023-02-07T00:55:08.552Z,5.13
2023-02-07T00:59:10.322Z,5.85
2023-02-07T01:03:12.085Z,6.03
2023-02-07T01:07:13.933Z,5.75
2023-02-07T01:11:18.872Z,6.10
2023-02-07T01:15:20.705Z,4.95
2023-02-07T01:19:22.537Z,5.07
2023-02-07T01:23:25.497Z,5.47
2023-02-07T01:27:27.296Z,5.13
2023-02-07T01:31:29.719Z,5.63
2023-02-07T01:35:31.527Z,5.82
2023-02-07T01:39:33.751Z,5.32
2023-02-07T01:44:00.823Z,5.22
2023-02-07T01:48:08.732Z,5.78
2023-02-07T01:52:17.298Z,5.05
2023-02-07T01:56:30.778Z,5.22
2023-02-07T02:00:36.105Z,5.20
2023-02-07T02:04:39.203Z,4.97
2023-02-07T02:08:41.495Z,5.22
2023-02-07T02:13:04.942Z,5.45
2023-02-07T02:17:29.762Z,5.30
2023-02-07T02:22:11.999Z,5.05
2023-02-07T02:26:51.012Z,4.45
2023-02-07T02:31:07.924Z,4.30
2023-02-07T02:35:19.524Z,3.80
2023-02-07T02:39:46.940Z,3.72
2023-02-07T02:44:01.877Z,4.00
2023-02-07T02:48:05.721Z,3.90
2023-02-07T02:52:07.908Z,4.05
2023-02-07T02:56:14.536Z,3.58
2023-02-07T03:00:38.335Z,4.03
2023-02-07T03:05:05.051Z,4.13
2023-02-07T03:09:16.230Z,4.65
2023-02-07T03:13:28.922Z,4.07
2023-02-07T03:17:37.837Z,4.38
2023-02-07T03:21:46.914Z,4.43
2023-02-07T03:25:51.836Z,3.92
2023-02-07T03:29:58.015Z,3.45
2023-02-07T03:34:08.873Z,4.40
2023-02-07T03:38:12.334Z,3.78
2023-02-07T03:42:26.599Z,4.18
2023-02-07T03:46:34.612Z,4.15
2023-02-07T03:50:36.459Z,3.80
2023-02-07T03:54:38.227Z,4.28
2023-02-07T03:58:39.965Z,3.67
2023-02-07T04:02:42.053Z,4.07
2023-02-07T04:06:43.776Z,3.55
2023-02-07T04:10:45.546Z,4.28
2023-02-07T04:14:47.296Z,4.60
2023-02-07T04:18:49.020Z,4.43
2023-02-07T04:22:50.737Z,3.53
2023-02-07T04:26:52.552Z,4.90
2023-02-07T04:30:54.402Z,4.32
2023-02-07T04:34:56.220Z,5.18
2023-02-07T04:38:58.136Z,4.97
2023-02-07T04:42:59.981Z,5.10
2023-02-07T04:47:01.700Z,6.90
2023-02-07T04:51:04.179Z,6.30
2023-02-07T04:55:06.939Z,6.88
2023-02-07T04:59:08.731Z,6.45
2023-02-07T05:03:10.541Z,6.85
2023-02-07T05:07:12.244Z,7.75
2023-02-07T05:11:14.078Z,7.60
2023-02-07T05:15:16.040Z,7.68
2023-02-07T05:19:17.844Z,7.35
2023-02-07T05:23:19.821Z,7.75
2023-02-07T05:27:21.592Z,7.80
2023-02-07T05:31:43.452Z,7.28
2023-02-07T05:35:45.981Z,7.10
2023-02-07T05:39:47.656Z,7.80
2023-02-07T05:43:49.480Z,7.80
2023-02-07T05:47:51.227Z,8.88
2023-02-07T05:51:52.989Z,8.40
2023-02-07T05:55:54.752Z,8.15
2023-02-07T05:59:56.502Z,8.85
2023-02-07T06:03:58.229Z,7.95
2023-02-07T06:08:00.202Z,7.47
2023-02-07T06:12:04.261Z,8.27
2023-02-07T06:16:07.345Z,8.65
2023-02-07T06:20:09.742Z,8.98
2023-02-07T06:24:11.504Z,8.15
2023-02-07T06:28:13.259Z,9.68
2023-02-07T06:32:15.080Z,9.23
2023-02-07T06:36:16.804Z,9.07
2023-02-07T06:40:18.647Z,8.77
2023-02-07T06:44:20.452Z,8.73
2023-02-07T06:48:22.792Z,9.10
2023-02-07T06:52:24.524Z,8.45
2023-02-07T06:56:26.220Z,8.25
2023-02-07T07:00:28.236Z,8.60
2023-02-07T07:04:31.008Z,9.13
2023-02-07T07:08:32.860Z,8.35
2023-02-07T07:12:34.692Z,9.23
2023-02-07T07:16:36.624Z,7.57
2023-02-07T07:20:38.354Z,7.60
2023-02-07T07:24:40.085Z,8.85
2023-02-07T07:28:41.806Z,9.90
2023-02-07T07:32:44.512Z,9.63
2023-02-07T07:36:46.287Z,10.30
2023-02-07T07:40:47.963Z,9.65
2023-02-07T07:44:49.720Z,10.90
2023-02-07T07:48:51.460Z,10.10
2023-02-07T07:52:53.160Z,10.73
2023-02-07T07:56:54.918Z,9.80
2023-02-07T08:00:56.699Z,12.13
2023-02-07T08:04:58.442Z,13.32
2023-02-07T08:09:00.542Z,11.80
2023-02-07T08:13:02.366Z,13.80
2023-02-07T08:17:04.262Z,13.07
2023-02-07T08:21:06.112Z,12.52
2023-02-07T08:25:08.638Z,13.60
2023-02-07T08:29:11.675Z,17.58
2023-02-07T08:33:14.138Z,14.25
2023-02-07T08:37:16.208Z,12.73
2023-02-07T08:41:18.053Z,14.00
2023-02-07T08:45:19.927Z,14.90
2023-02-07T08:49:21.720Z,15.00
2023-02-07T08:53:23.424Z,14.88
2023-02-07T08:57:25.897Z,14.07
2023-02-07T09:01:27.822Z,13.60
2023-02-07T09:05:33.832Z,13.43
2023-02-07T09:09:36.179Z,14.70
2023-02-07T09:13:37.984Z,12.20
2023-02-07T09:17:39.826Z,11.75
2023-02-07T09:21:41.528Z,11.38
2023-02-07T09:25:44.251Z,11.90
2023-02-07T09:29:46.041Z,12.07
2023-02-07T09:33:47.740Z,10.95
2023-02-07T09:37:52.443Z,12.75
2023-02-07T09:42:17.566Z,11.32
2023-02-07T09:46:25.287Z,10.45
2023-02-07T09:50:39.163Z,11.35
2023-02-07T09:54:44.563Z,10.85
2023-02-07T09:58:49.219Z,10.25
2023-02-07T10:03:09.954Z,10.88
2023-02-07T10:07:13.391Z,10.65
2023-02-07T10:11:51.273Z,10.50
2023-02-07T10:15:57.011Z,10.10
2023-02-07T10:20:19.220Z,11.45
2023-02-07T10:24:39.750Z,10.77
2023-02-07T10:29:05.972Z,11.77
2023-02-07T10:33:29.202Z,11.55
2023-02-07T10:37:38.425Z,11.25
2023-02-07T10:41:44.810Z,11.20
2023-02-07T10:45:51.877Z,10.60
2023-02-07T10:49:56.891Z,10.80
2023-02-07T10:54:09.550Z,10.80
2023-02-07T10:58:23.344Z,10.35
2023-02-07T11:02:28.775Z,11.23
2023-02-07T11:06:33.571Z,10.38
2023-02-07T11:10:38.422Z,9.95
2023-02-07T11:14:45.662Z,10.07
2023-02-07T11:19:00.694Z,9.95
2023-02-07T11:23:08.177Z,10.18
2023-02-07T11:27:18.833Z,10.40
2023-02-07T11:31:29.610Z,12.07
2023-02-07T11:35:31.869Z,9.73
2023-02-07T11:39:33.906Z,9.95
2023-02-07T11:43:35.997Z,9.48
2023-02-07T11:47:38.461Z,9.77
2023-02-07T11:51:40.318Z,8.85
2023-02-07T11:55:44.306Z,9.40
2023-02-07T12:00:16.887Z,9.57
2023-02-07T12:04:28.126Z,8.73
2023-02-07T12:08:34.309Z,8.65
2023-02-07T12:12:42.688Z,9.50
2023-02-07T12:16:52.599Z,8.05
2023-02-07T12:21:19.486Z,7.95
2023-02-07T12:25:31.848Z,7.82
2023-02-07T12:30:02.871Z,8.45
2023-02-07T12:34:13.126Z,7.75
2023-02-07T12:38:24.601Z,7.18
2023-02-07T12:42:46.930Z,7.68
2023-02-07T12:46:57.848Z,7.63
2023-02-07T12:50:59.511Z,7.68
2023-02-07T12:55:22.990Z,8.32
2023-02-07T12:59:33.851Z,8.18
2023-02-07T13:03:45.334Z,7.47
2023-02-07T13:08:13.827Z,7.53
2023-02-07T13:12:21.554Z,6.47
2023-02-07T13:16:40.767Z,6.28
2023-02-07T13:21:08.800Z,5.72
2023-02-07T13:25:19.796Z,6.55
2023-02-07T13:29:23.484Z,7.72
2023-02-07T13:33:34.540Z,6.40
2023-02-07T13:37:47.027Z,6.43
2023-02-07T13:42:17.085Z,6.10
2023-02-07T13:46:40.708Z,5.55
2023-02-07T13:51:17.347Z,5.45
2023-02-07T13:55:41.238Z,5.38
2023-02-07T13:59:43.750Z,6.50
2023-02-07T14:04:11.412Z,5.20
2023-02-07T14:08:16.586Z,6.15
2023-02-07T14:12:26.430Z,5.53
2023-02-07T14:17:08.615Z,5.63
2023-02-07T14:21:19.201Z,5.30
2023-02-07T14:25:23.393Z,6.20
2023-02-07T14:29:25.292Z,5.75
2023-02-07T14:33:38.682Z,6.93
2023-02-07T14:37:51.472Z,6.53
2023-02-07T14:41:54.141Z,6.57
2023-02-07T14:45:55.920Z,6.25
2023-02-07T14:50:00.519Z,6.38
2023-02-07T14:54:06.626Z,6.97
2023-02-07T14:58:22.237Z,6.72
2023-02-07T15:02:40.947Z,6.18
2023-02-07T15:10:54.283Z,6.47
2023-02-07T15:14:57.228Z,6.35
2023-02-07T15:19:18.030Z,6.38
2023-02-07T15:23:22.077Z,7.00
2023-02-07T15:27:27.425Z,5.97
2023-02-07T15:31:29.578Z,6.72
2023-02-07T15:35:39.571Z,6.90
2023-02-07T15:39:41.856Z,5.50
2023-02-07T15:43:53.940Z,6.05
2023-02-07T15:48:19.048Z,6.60
2023-02-07T15:52:36.494Z,5.75
2023-02-07T15:56:46.568Z,6.38
2023-02-07T16:00:49.470Z,5.97
2023-02-07T16:04:52.085Z,5.70
2023-02-07T16:08:58.577Z,5.80
2023-02-07T16:13:21.110Z,6.10
2023-02-07T16:17:24.666Z,5.65
2023-02-07T16:21:30.217Z,5.25
2023-02-07T16:25:35.020Z,5.40
2023-02-07T16:29:41.428Z,5.40
2023-02-07T16:33:43.147Z,5.57
2023-02-07T16:37:45.237Z,5.25
2023-02-07T16:41:57.810Z,5.93
2023-02-07T16:46:01.462Z,5.82
2023-02-07T16:50:04.069Z,5.93
2023-02-07T16:54:05.818Z,6.15
2023-02-07T16:58:08.028Z,6.03
2023-02-07T17:02:15.862Z,6.43
2023-02-07T17:06:20.342Z,6.82
2023-02-07T17:10:24.029Z,6.97
2023-02-07T17:14:26.096Z,6.43
2023-02-07T17:18:28.353Z,6.03
2023-02-07T17:22:30.090Z,6.45
2023-02-07T17:26:32.298Z,8.13
2023-02-07T17:30:40.258Z,7.35
2023-02-07T17:34:42.212Z,7.40
2023-02-07T17:38:44.567Z,6.20
2023-02-07T17:42:46.295Z,6.97
2023-02-07T17:46:48.304Z,6.30
2023-02-07T17:50:50.072Z,6.93
2023-02-07T17:54:51.786Z,7.03
2023-02-07T17:58:55.022Z,7.15
2023-02-07T18:02:56.907Z,6.97
2023-02-07T18:06:59.140Z,6.82
2023-02-07T18:11:04.284Z,7.50
2023-02-07T18:15:09.105Z,6.78
2023-02-07T18:19:16.568Z,8.27
2023-02-07T18:23:19.054Z,8.40
2023-02-07T18:27:20.863Z,7.60
2023-02-07T18:31:25.065Z,7.82
2023-02-07T18:35:27.051Z,7.68
2023-02-07T18:39:28.765Z,8.73
2023-02-07T18:43:30.494Z,8.00
2023-02-07T18:47:32.901Z,8.00
2023-02-07T18:51:34.995Z,7.93
2023-02-07T18:55:36.756Z,8.65
2023-02-07T18:59:39.343Z,7.85
2023-02-07T19:03:41.062Z,8.88
2023-02-07T19:07:42.847Z,8.07
2023-02-07T19:11:44.972Z,8.30
2023-02-07T19:15:46.757Z,8.95
2023-02-07T19:19:48.480Z,7.78
2023-02-07T19:23:50.673Z,8.68
2023-02-07T19:27:52.459Z,8.82
2023-02-07T19:32:02.741Z,8.25
2023-02-07T19:36:10.457Z,8.32
2023-02-07T19:40:12.194Z,8.23
2023-02-07T19:44:13.938Z,8.32
2023-02-07T19:48:16.170Z,8.13
2023-02-07T19:52:23.253Z,8.60
2023-02-07T19:56:27.502Z,8.40
2023-02-07T20:00:30.560Z,8.45
2023-02-07T20:04:34.846Z,8.50
2023-02-07T20:08:38.754Z,7.88
2023-02-07T20:12:40.632Z,8.15
2023-02-07T20:16:42.393Z,8.60
2023-02-07T20:20:47.984Z,9.30
2023-02-07T20:24:50.120Z,8.68
2023-02-07T20:28:51.942Z,9.10
2023-02-07T20:32:55.094Z,8.70
2023-02-07T20:36:56.878Z,8.80
2023-02-07T20:41:09.104Z,8.25
2023-02-07T20:45:11.502Z,8.90
2023-02-07T20:49:20.064Z,8.35
2023-02-07T20:53:21.764Z,8.77
2023-02-07T20:57:23.514Z,8.77
2023-02-07T21:01:27.906Z,9.15
2023-02-07T21:05:29.648Z,8.68
2023-02-07T21:09:31.825Z,8.27
2023-02-07T21:13:35.287Z,9.02
2023-02-07T21:17:37.381Z,8.38
2023-02-07T21:21:39.894Z,8.43
2023-02-07T21:25:41.764Z,8.50
2023-02-07T21:29:43.508Z,7.97
2023-02-07T21:33:45.799Z,9.50
2023-02-07T21:37:47.690Z,8.55
2023-02-07T21:41:49.438Z,9.63
2023-02-07T21:45:51.225Z,9.18
2023-02-07T21:49:52.994Z,9.88
2023-02-07T21:53:56.351Z,9.70
2023-02-07T21:57:58.101Z,10.02
2023-02-07T22:02:00.554Z,9.57
2023-02-07T22:06:02.664Z,10.23
2023-02-07T22:10:04.681Z,9.70
2023-02-07T22:14:06.644Z,10.57
2023-02-07T22:18:08.375Z,9.40
2023-02-07T22:22:10.159Z,10.65
2023-02-07T22:26:11.942Z,10.18
2023-02-07T22:30:14.633Z,9.18
2023-02-07T22:34:16.460Z,8.82
2023-02-07T22:38:18.290Z,9.60
2023-02-07T22:42:20.003Z,8.75
2023-02-07T22:46:24.588Z,10.13
2023-02-07T22:50:27.160Z,8.85
2023-02-07T22:54:28.920Z,9.45
2023-02-07T22:58:30.878Z,9.05
2023-02-07T23:02:32.897Z,9.95
2023-02-07T23:06:34.706Z,9.85
2023-02-07T23:10:36.419Z,9.50
2023-02-07T23:14:39.024Z,8.02
2023-02-07T23:18:41.293Z,8.80
2023-02-07T23:22:43.034Z,8.60
2023-02-07T23:26:44.855Z,8.90
2023-02-07T23:30:46.709Z,8.20
2023-02-07T23:34:48.464Z,8.75
2023-02-07T23:38:50.648Z,9.25
2023-02-07T23:42:52.465Z,7.63
2023-02-07T23:46:54.190Z,8.00
2023-02-07T23:50:58.440Z,8.60
2023-02-07T23:55:00.125Z,7.88
2023-02-07T23:59:01.932Z,8.63
